My Meet Scores
Rose Fas, Farmington Valley Gymnastics and More - MyMeetScores.com
Top100 | Top Teams | Upcoming Meets | Completed Meets | Latest | Add Scores | Help| Support | Bookmark and Share

Rose Fas, Farmington Valley Gymnastics and More
Personal Bests
LevelVault BarsBeamFloorAA
39.5258.850 9.3259.25036.575
49.0008.575 9.2259.00034.950
XG9.2509.050 9.3759.40036.725
AllLevels9.0757.950 8.8509.05034.925
Meet Scores
Date Meet Team Session Level Division Vault Bars Beam Floor AA
2021-04-17 2021 XG,XP,XD CT State Championships Farmington Valley Gymnastics and More 3 XG Sr D 9.000 19T 8.325 26T 9.050 6 8.850 21T 35.225 15
2020-03-07 Holiday Costume Cup 2020 Farmington Valley Gymnastics and More 07 XG Youth 9.250 2 8.825 4 8.750 4T 8.750 7 35.575 3
2020-02-28 2020 February Flip Invitational Farmington Valley Gymnastics and More 4 XG 13 yr old 9.050 4T 8.925 11T 9.375 2T 9.375 4T 36.725 4
2020-02-15 2/15/20-2/16/20 CT FVG In house Valentine Inv Farmington Valley Gymnastics and More 4 XG Jr B 9.000 3T 8.100 9 8.150 10 9.225 1 34.475 9
2020-02-09 Flip-Flop Gymnastics Local Meet Farmington Valley Gymnastics and More 2 XG 13 yrs. 8.850 13T 9.050 11T 8.800 25 9.400 2T 36.100 10
2020-01-24 2020 Kinetic Kids Invitational Farmington Valley Gymnastics and More 2 XG Sr A 8.700 7 8.700 8 6.750 10 8.875 9 33.025 9
2019-12-06 Rhode Island Invitational Farmington Valley Gymnastics and More SS2 XG intermedia 8.625 4T 7.725 9 8.500 3T 8.900 7 33.750 6
2019-02-01 State Level 4&5 Farmington Valley Gymnastics and More 1 4 12 Up 8.550 33T 7.950 25* 9.075 17T 8.450 40 34.025 31T
2019-01-25 Kinetic Kids Invitational 2019 Farmington Valley Gymnastics and More 2 4 Sr B 8.450 6 8.575 6 8.700 6T 8.625 4T 34.350 5
2019-01-18 DGS Northeast Invite Farmington Valley Gymnastics and More 8A 4 Jr A 8.800 1T 8.400 3T 8.775 3T 8.750 3 34.725 4
2019-01-11 New Year's Invitational Farmington Valley Gymnastics and More 2 4 Sr B 8.500 6T 8.200 8 9.225 4 8.250 8 34.175 8
2018-12-08 American Gymnastics Invitational Farmington Valley Gymnastics and More 5 4 Sr B 9.000 2T 7.850 6T 9.175 5 8.850 8 34.875 7
2018-11-30 Rhode Island Invitational Farmington Valley Gymnastics and More SS2 4 Senior 8.800 4 8.400 6 9.000 4 8.750 2 34.950 3
2018-11-17 2018 Connecticut Judge's Cup Farmington Valley Gymnastics and More 6 4 12+ yrs. 8.700 28T 7.400 51T 8.375 29 9.000 19T 33.475 34T
2018-11-10 2018 Turkey Tumble Farmington Valley Gymnastics and More 2 4 Sr C 8.500 3T 8.000 7 9.075 4 8.225 6 33.800 4T
2018-02-03 Level 4 & 5 States Farmington Valley Gymnastics and More 4 4 11 B 8.350 47T 6.700 59 8.750 34T 8.500 40T 32.300 53
2018-01-12 DGS Invitational Farmington Valley Gymnastics and More 5B 4 11 yrs. 8.725 6 6.900 9 8.800 5T 8.400 9 32.825 8
2017-11-30 Rhode Island Invitational Farmington Valley Gymnastics and More SS1 4 Senior 8.325 10 7.300 10 8.525 8 8.050 11 32.200 10
2017-11-10 2017 Phs Turkey Tumble Farmington Valley Gymnastics and More 1 4 Sr B 8.450 9 7.500 10 8.325 4 7.700 11 31.975 9
2017-03-25 2017 Connecticut Level 3 State Cup Farmington Valley Gymnastics and More 5 3 N/A 9.100 17T 8.850 20T 8.825 15 9.250 7T 36.025 9
2016-12-02 Rhode Island Invitational Farmington Valley Gymnastics and More WS1 3 Senior 9.525 2T 8.525 5 9.325 1 9.200 1 36.575 2
2016-11-05 2016 Connecticut Judges Cup Farmington Valley Gymnastics and More 2 AllLevels AllAges 9.075 7 7.950 32 8.850 11T 9.050 6 34.925 14
2016-04-02 2016 Connecticut Level 6 States & Level 3 State Cup Farmington Valley Gymnastics and More 5 3 N/A 9.075 28 8.050 37T 8.300 27T 9.075 20T 34.500 27T
2015-12-04 Rhode Island Invitational Farmington Valley Gymnastics and More WU1 3 junior 9.300 4 7.100 37 8.350 16T 8.500 19T 33.250 15
Get your scores on
a t-shirt, pin, or hoodie